Portada
METAR-TAF:

METAR-TAF

Aeropuertos :

Cognac, Francia

latitud: 45-40N, longitud: 000-19W, altitud: 30 m

Observación

El informe se hizo hace 36 minutos, a las 13:00 UTC
Viento 10 kt del norte-noreste, variando entre norte y este-noreste
Temperatura 9°C
Humedad 61%
Presión 1037 hPa
Visibilidad 10 km o más
Cielo cubierto a una altura de 3100 ft

METAR: LFBG 031300Z AUTO 02010KT 350V060 9999 OVC031 09/02 Q1037 NOSIG

Hora: 14:36 (13:36 UTC)

Pronóstico

El informe se hizo hace 5 horas y 36 minutos, a las 08:00 UTC
Pronóstico válido del 03 a las 09 UTC al 04 a las 09 UTC
Viento 5 kt del norte
Visibilidad 10 km o más
sin nubes por debajo de 1500 m y sin presencia de cumulonimbus.
Probabilidad 30% :
Temporalmente
del 04 a las 05 UTC al 04 a las 08 UTC
Visibilidad: 0500 m
niebla

TAF: LFBG 030800Z 0309/0409 01005KT CAVOK PROB30 TEMPO 0405/0408 0500 FG NSC

Observaciones y pronósticos meteorológicos de más de 4000 aeropuertos (mensajes METAR y TAF).

Los puntos amarillos y rojos representan las estaciones disponibles.

Ponga el ratón en el punto deseado para ver el nombre de la estación.

Haga clic para ver las observaciones y los pronósticos meteorológicos.

Para cambiar el mapa : haga clic en los botones verdes con una cruz de color negro para hacer un zoom, en el botón verde con un guión para alejar o en las flechas verdes para mapas adyacentes.


METAR-TAF: